createdAt,value
2024-02-14T00:00:26.432Z,98476.63
2024-02-14T00:02:53.448Z,98483.09
2024-02-14T00:05:20.498Z,98485.81
2024-02-14T00:07:47.300Z,98484.31
2024-02-14T00:10:13.972Z,98488.41
2024-02-14T00:12:40.849Z,98489.66
2024-02-14T00:15:08.867Z,98482.78
2024-02-14T00:17:36.490Z,98488.19
2024-02-14T00:20:04.685Z,98491.66
2024-02-14T00:22:32.516Z,98499.56
2024-02-14T00:24:59.489Z,98501.03
2024-02-14T00:27:27.926Z,98491.91
2024-02-14T00:29:55.975Z,98497.41
2024-02-14T00:32:23.515Z,98499.13
2024-02-14T00:34:51.651Z,98491.91
2024-02-14T00:37:20.261Z,98500.69
2024-02-14T00:39:47.147Z,98501.91
2024-02-14T00:42:13.950Z,98505.38
2024-02-14T00:44:40.539Z,98504.41
2024-02-14T00:47:07.568Z,98510.19
2024-02-14T00:49:37.846Z,98521.22
2024-02-14T00:52:04.864Z,98521.47
2024-02-14T00:54:31.665Z,98531.41
2024-02-14T00:56:58.581Z,98520.72
2024-02-14T00:59:26.256Z,98533.34
2024-02-14T01:01:53.229Z,98537.09
2024-02-14T01:04:19.987Z,98535.47
2024-02-14T01:06:46.785Z,98545.37
2024-02-14T01:09:13.686Z,98553.00
2024-02-14T01:11:40.378Z,98557.31
2024-02-14T01:14:07.250Z,98555.69
2024-02-14T01:16:34.107Z,98558.78
2024-02-14T01:19:01.203Z,98557.69
2024-02-14T01:21:28.151Z,98553.63
2024-02-14T01:23:54.809Z,98553.06
2024-02-14T01:26:22.369Z,98552.63
2024-02-14T01:28:49.787Z,98556.38
2024-02-14T01:31:16.845Z,98551.19
2024-02-14T01:33:45.190Z,98546.41
2024-02-14T01:36:12.190Z,98549.78
2024-02-14T01:38:39.138Z,98551.13
2024-02-14T01:41:06.815Z,98543.72
2024-02-14T01:43:33.613Z,98548.81
2024-02-14T01:46:07.858Z,98551.13
2024-02-14T01:48:38.514Z,98547.53
2024-02-14T01:51:08.568Z,98542.72
2024-02-14T01:53:36.816Z,98538.81
2024-02-14T01:56:05.730Z,98540.97
2024-02-14T01:58:32.693Z,98543.19
2024-02-14T02:01:00.186Z,98539.63
2024-02-14T02:03:28.061Z,98543.56
2024-02-14T02:05:55.723Z,98534.81
2024-02-14T02:08:22.897Z,98542.50
2024-02-14T02:10:49.843Z,98551.50
2024-02-14T02:13:17.137Z,98553.53
2024-02-14T02:15:47.055Z,98554.13
2024-02-14T02:18:14.498Z,98552.31
2024-02-14T02:20:43.873Z,98551.03
2024-02-14T02:23:16.453Z,98540.44
2024-02-14T02:25:44.243Z,98544.56
2024-02-14T02:28:11.280Z,98544.31
2024-02-14T02:30:38.228Z,98542.19
2024-02-14T02:33:06.855Z,98546.13
2024-02-14T02:35:34.692Z,98549.88
2024-02-14T02:38:01.859Z,98545.00
2024-02-14T02:40:28.918Z,98551.50
2024-02-14T02:42:56.053Z,98554.16
2024-02-14T02:45:22.864Z,98553.56
2024-02-14T02:47:51.264Z,98556.88
2024-02-14T02:50:18.873Z,98555.16
2024-02-14T02:52:45.818Z,98560.59
2024-02-14T02:55:12.677Z,98560.53
2024-02-14T02:57:40.726Z,98559.31
2024-02-14T03:00:11.192Z,98567.34
2024-02-14T03:02:42.789Z,98560.13
2024-02-14T03:05:11.863Z,98568.53
2024-02-14T03:07:39.765Z,98562.56
2024-02-14T03:10:07.424Z,98569.44
2024-02-14T03:12:36.859Z,98564.09
2024-02-14T03:15:06.279Z,98564.66
2024-02-14T03:17:33.460Z,98567.28
2024-02-14T03:20:01.039Z,98573.38
2024-02-14T03:22:28.704Z,98574.88
2024-02-14T03:24:55.353Z,98579.00
2024-02-14T03:27:24.766Z,98572.53
2024-02-14T03:29:52.304Z,98585.38
2024-02-14T03:32:19.144Z,98585.81
2024-02-14T03:34:45.849Z,98593.13
2024-02-14T03:37:12.691Z,98597.47
2024-02-14T03:39:39.571Z,98599.75
2024-02-14T03:42:08.961Z,98595.81
2024-02-14T03:44:36.026Z,98590.06
2024-02-14T03:47:02.960Z,98592.94
2024-02-14T03:49:31.512Z,98586.16
2024-02-14T03:51:58.383Z,98594.41
2024-02-14T03:54:25.276Z,98598.03
2024-02-14T03:56:53.747Z,98597.06
2024-02-14T03:59:25.932Z,98598.81
2024-02-14T04:01:54.519Z,98603.66
2024-02-14T04:04:21.699Z,98606.34
2024-02-14T04:06:49.151Z,98605.69
2024-02-14T04:09:16.166Z,98608.97
2024-02-14T04:11:43.019Z,98618.88
2024-02-14T04:14:09.858Z,98617.41
2024-02-14T04:16:37.742Z,98621.72
2024-02-14T04:19:04.908Z,98627.03
2024-02-14T04:21:32.826Z,98624.50
2024-02-14T04:23:59.838Z,98625.56
2024-02-14T04:26:28.079Z,98625.66
2024-02-14T04:28:54.906Z,98636.00
2024-02-14T04:31:21.608Z,98630.88
2024-02-14T04:33:53.332Z,98631.09
2024-02-14T04:36:24.297Z,98641.25
2024-02-14T04:38:51.826Z,98642.66
2024-02-14T04:41:18.892Z,98640.78
2024-02-14T04:43:45.764Z,98648.06
2024-02-14T04:46:12.672Z,98647.75
2024-02-14T04:48:39.569Z,98654.28
2024-02-14T04:51:06.757Z,98648.19
2024-02-14T04:53:33.846Z,98654.31
2024-02-14T04:56:00.767Z,98655.50
2024-02-14T04:58:28.240Z,98654.63
2024-02-14T05:00:56.306Z,98657.75
2024-02-14T05:03:25.504Z,98660.22
2024-02-14T05:05:52.505Z,98663.31
2024-02-14T05:08:19.332Z,98669.31
2024-02-14T05:10:46.830Z,98669.53
2024-02-14T05:13:14.444Z,98666.84
2024-02-14T05:15:41.379Z,98664.97
2024-02-14T05:18:08.666Z,98662.94
2024-02-14T05:20:35.616Z,98670.66
2024-02-14T05:23:02.523Z,98671.38
2024-02-14T05:25:30.927Z,98679.03
2024-02-14T05:27:57.844Z,98673.72
2024-02-14T05:30:26.029Z,98669.66
2024-02-14T05:32:54.135Z,98673.97
2024-02-14T05:35:21.686Z,98678.38
2024-02-14T05:37:51.171Z,98680.31
2024-02-14T05:40:18.279Z,98687.25
2024-02-14T05:42:47.451Z,98678.59
2024-02-14T05:45:14.698Z,98693.50
2024-02-14T05:47:41.700Z,98692.78
2024-02-14T05:50:10.248Z,98690.59
2024-02-14T05:52:37.253Z,98695.78
2024-02-14T05:55:04.749Z,98699.81
2024-02-14T05:57:31.628Z,98689.34
2024-02-14T05:59:58.366Z,98686.88
2024-02-14T06:02:25.252Z,98694.09
2024-02-14T06:04:52.556Z,98700.84
2024-02-14T06:07:19.397Z,98703.72
2024-02-14T06:09:46.887Z,98704.50
2024-02-14T06:12:13.860Z,98709.66
2024-02-14T06:14:40.912Z,98713.94
2024-02-14T06:17:07.841Z,98709.97
2024-02-14T06:19:40.239Z,98714.56
2024-02-14T06:22:07.918Z,98705.31
2024-02-14T06:24:34.814Z,98723.00
2024-02-14T06:27:01.809Z,98720.75
2024-02-14T06:29:28.812Z,98727.50
2024-02-14T06:31:55.739Z,98723.69
2024-02-14T06:34:23.087Z,98740.16
2024-02-14T06:36:50.527Z,98744.09
2024-02-14T06:39:17.324Z,98751.97
2024-02-14T06:41:46.440Z,98753.19
2024-02-14T06:44:13.349Z,98754.97
2024-02-14T06:46:40.280Z,98751.72
2024-02-14T06:49:07.272Z,98758.59
2024-02-14T06:51:34.638Z,98763.78
2024-02-14T06:54:01.449Z,98756.34
2024-02-14T06:56:28.417Z,98758.59
2024-02-14T06:59:01.155Z,98764.19
2024-02-14T07:01:30.170Z,98765.66
2024-02-14T07:03:57.713Z,98762.22
2024-02-14T07:06:24.702Z,98765.09
2024-02-14T07:08:51.598Z,98776.72
2024-02-14T07:11:18.970Z,98773.72
2024-02-14T07:13:46.008Z,98777.62
2024-02-14T07:16:12.866Z,98776.50
2024-02-14T07:18:39.865Z,98774.59
2024-02-14T07:21:07.244Z,98776.06
2024-02-14T07:23:35.293Z,98771.44
2024-02-14T07:26:02.898Z,98772.13
2024-02-14T07:28:29.797Z,98766.50
2024-02-14T07:30:56.667Z,98769.34
2024-02-14T07:33:23.596Z,98780.44
2024-02-14T07:35:51.185Z,98764.28
2024-02-14T07:38:18.845Z,98764.59
2024-02-14T07:40:45.777Z,98759.50
2024-02-14T07:43:12.600Z,98763.31
2024-02-14T07:45:39.582Z,98780.38
2024-02-14T07:48:07.072Z,98772.63
2024-02-14T07:50:34.177Z,98777.59
2024-02-14T07:53:01.084Z,98776.31
2024-02-14T07:55:27.871Z,98776.84
2024-02-14T07:57:54.758Z,98781.37
2024-02-14T08:00:24.282Z,98780.28
2024-02-14T08:02:51.433Z,98793.03
2024-02-14T08:05:18.894Z,98792.78
2024-02-14T08:07:47.522Z,98791.84
2024-02-14T08:10:14.891Z,98788.19
2024-02-14T08:12:41.750Z,98796.59
2024-02-14T08:15:09.104Z,98800.09
2024-02-14T08:17:36.850Z,98792.94
2024-02-14T08:20:05.634Z,98788.75
2024-02-14T08:22:32.798Z,98788.31
2024-02-14T08:25:00.187Z,98793.41
2024-02-14T08:27:27.733Z,98796.09
2024-02-14T08:29:54.684Z,98794.16
2024-02-14T08:32:22.334Z,98798.25
2024-02-14T08:34:51.463Z,98799.94
2024-02-14T08:37:18.462Z,98800.41
2024-02-14T08:39:45.409Z,98794.09
2024-02-14T08:42:12.660Z,98799.06
2024-02-14T08:44:39.593Z,98797.16
2024-02-14T08:47:07.883Z,98794.44
2024-02-14T08:49:35.116Z,98807.09
2024-02-14T08:52:02.004Z,98800.75
2024-02-14T08:54:29.687Z,98802.44
2024-02-14T08:56:59.879Z,98794.09
2024-02-14T08:59:27.696Z,98798.13
2024-02-14T09:01:54.810Z,98789.81
2024-02-14T09:04:21.723Z,98789.28
2024-02-14T09:06:48.584Z,98788.72
2024-02-14T09:09:16.951Z,98801.22
2024-02-14T09:11:44.039Z,98803.06
2024-02-14T09:14:11.726Z,98805.37
2024-02-14T09:16:39.080Z,98806.88
2024-02-14T09:19:08.753Z,98809.75
2024-02-14T09:21:38.607Z,98810.22
2024-02-14T09:24:06.263Z,98815.91
2024-02-14T09:26:33.191Z,98812.25
2024-02-14T09:29:00.051Z,98805.59
2024-02-14T09:31:26.963Z,98811.66
2024-02-14T09:33:58.253Z,98809.25
2024-02-14T09:36:28.003Z,98799.00
2024-02-14T09:38:55.509Z,98804.59
2024-02-14T09:41:35.101Z,98802.41
2024-02-14T09:44:02.108Z,98798.72
2024-02-14T09:46:31.727Z,98801.69
2024-02-14T09:49:01.035Z,98798.16
2024-02-14T09:51:28.010Z,98791.91
2024-02-14T09:53:55.974Z,98788.25
2024-02-14T09:56:26.245Z,98786.53
2024-02-14T09:58:58.101Z,98791.56
2024-02-14T10:01:27.097Z,98790.75
2024-02-14T10:03:55.229Z,98782.94
2024-02-14T10:06:23.261Z,98793.69
2024-02-14T10:08:58.457Z,98787.66
2024-02-14T10:11:33.270Z,98789.59
2024-02-14T10:14:04.969Z,98786.00
2024-02-14T10:16:32.399Z,98788.41
2024-02-14T10:18:59.873Z,98789.16
2024-02-14T10:21:27.493Z,98782.53
2024-02-14T10:23:54.614Z,98787.81
2024-02-14T10:26:21.723Z,98778.22
2024-02-14T10:28:50.446Z,98782.28
2024-02-14T10:31:17.741Z,98783.56
2024-02-14T10:33:45.081Z,98770.59
2024-02-14T10:36:13.997Z,98766.28
2024-02-14T10:38:41.699Z,98766.91
2024-02-14T10:41:11.109Z,98765.66
2024-02-14T10:43:40.271Z,98754.84
2024-02-14T10:46:09.686Z,98764.66
2024-02-14T10:48:40.160Z,98755.94
2024-02-14T10:51:11.470Z,98762.44
2024-02-14T10:53:43.597Z,98752.31
2024-02-14T10:56:10.826Z,98756.75
2024-02-14T10:58:38.102Z,98755.16
2024-02-14T11:01:05.248Z,98747.16
2024-02-14T11:03:32.511Z,98752.47
2024-02-14T11:06:05.495Z,98745.91
2024-02-14T11:08:34.088Z,98739.09
2024-02-14T11:11:01.587Z,98738.25
2024-02-14T11:13:30.617Z,98738.50
2024-02-14T11:15:58.411Z,98739.50
2024-02-14T11:18:31.710Z,98736.25
2024-02-14T11:21:01.943Z,98728.94
2024-02-14T11:23:31.854Z,98740.16
2024-02-14T11:26:03.907Z,98733.03
2024-02-14T11:28:31.478Z,98737.25
2024-02-14T11:31:05.948Z,98717.75
2024-02-14T11:33:34.168Z,98712.84
2024-02-14T11:36:08.858Z,98712.00
2024-02-14T11:38:35.972Z,98709.34
2024-02-14T11:41:05.034Z,98702.09
2024-02-14T11:43:32.498Z,98701.59
2024-02-14T11:45:59.382Z,98698.63
2024-02-14T11:48:26.474Z,98698.41
2024-02-14T11:50:55.158Z,98696.09
2024-02-14T11:53:22.499Z,98698.00
2024-02-14T11:55:49.835Z,98696.69
2024-02-14T11:58:18.185Z,98696.84
2024-02-14T12:00:45.972Z,98696.00
2024-02-14T12:03:23.950Z,98693.22
2024-02-14T12:05:52.697Z,98691.91
2024-02-14T12:08:20.133Z,98676.53
2024-02-14T12:10:49.188Z,98688.63
2024-02-14T12:13:19.425Z,98681.03
2024-02-14T12:15:48.028Z,98689.13
2024-02-14T12:18:15.335Z,98686.84
2024-02-14T12:20:44.281Z,98691.03
2024-02-14T12:23:20.673Z,98682.06
2024-02-14T12:25:48.558Z,98692.06
2024-02-14T12:28:18.508Z,98688.28
2024-02-14T12:30:57.864Z,98689.50
2024-02-14T12:33:26.724Z,98691.72
2024-02-14T12:35:58.668Z,98682.91
2024-02-14T12:38:25.746Z,98682.66
2024-02-14T12:40:56.160Z,98680.00
2024-02-14T12:43:23.080Z,98675.84
2024-02-14T12:45:49.989Z,98679.53
2024-02-14T12:48:25.517Z,98678.97
2024-02-14T12:50:53.662Z,98678.72
2024-02-14T12:53:21.150Z,98681.25
2024-02-14T12:55:48.433Z,98678.97
2024-02-14T12:58:15.884Z,98681.44
2024-02-14T13:00:44.302Z,98680.97
2024-02-14T13:03:13.884Z,98680.72
2024-02-14T13:05:43.192Z,98682.41
2024-02-14T13:08:12.630Z,98668.78
2024-02-14T13:10:39.863Z,98673.09
2024-02-14T13:13:06.834Z,98667.31
2024-02-14T13:15:33.683Z,98673.22
2024-02-14T13:18:01.790Z,98655.09
2024-02-14T13:20:29.487Z,98659.03
2024-02-14T13:22:56.789Z,98662.78
2024-02-14T13:25:23.604Z,98662.13
2024-02-14T13:27:50.466Z,98656.66
2024-02-14T13:30:17.438Z,98668.19
2024-02-14T13:32:44.594Z,98663.94
2024-02-14T13:35:12.709Z,98657.31
2024-02-14T13:37:39.626Z,98657.72
2024-02-14T13:40:11.751Z,98663.91
2024-02-14T13:42:41.647Z,98661.47
2024-02-14T13:45:12.684Z,98655.94
2024-02-14T13:47:45.000Z,98660.34
2024-02-14T13:50:12.170Z,98653.03
2024-02-14T13:52:39.226Z,98658.22
2024-02-14T13:55:06.953Z,98656.88
2024-02-14T13:57:39.082Z,98656.38
2024-02-14T14:00:10.800Z,98655.16
2024-02-14T14:02:42.838Z,98655.53
2024-02-14T14:05:10.422Z,98663.28
2024-02-14T14:07:49.364Z,98656.97
2024-02-14T14:10:26.803Z,98660.91
2024-02-14T14:12:54.084Z,98658.63
2024-02-14T14:15:21.290Z,98662.13
2024-02-14T14:17:48.504Z,98645.97
2024-02-14T14:20:15.754Z,98656.56
2024-02-14T14:22:42.913Z,98649.94
2024-02-14T14:25:10.013Z,98655.91
2024-02-14T14:27:37.216Z,98661.09
2024-02-14T14:30:05.542Z,98664.03
2024-02-14T14:32:32.596Z,98656.91
2024-02-14T14:34:59.528Z,98658.22
2024-02-14T14:37:26.354Z,98661.94
2024-02-14T14:39:53.270Z,98664.78
2024-02-14T14:42:20.201Z,98669.34
2024-02-14T14:44:47.004Z,98669.06
2024-02-14T14:47:14.527Z,98664.72
2024-02-14T14:49:42.464Z,98666.75
2024-02-14T14:52:09.396Z,98667.63
2024-02-14T14:54:36.814Z,98662.22
2024-02-14T14:57:08.528Z,98668.47
2024-02-14T14:59:36.627Z,98666.16
2024-02-14T15:02:03.955Z,98669.66
2024-02-14T15:04:30.916Z,98666.13
2024-02-14T15:06:57.920Z,98671.06
2024-02-14T15:09:24.911Z,98671.38
2024-02-14T15:11:51.930Z,98665.19
2024-02-14T15:14:19.304Z,98668.09
2024-02-14T15:16:46.384Z,98665.31
2024-02-14T15:19:13.325Z,98669.03
2024-02-14T15:21:40.233Z,98662.88
2024-02-14T15:24:29.988Z,98665.03
2024-02-14T15:27:02.143Z,98663.38
2024-02-14T15:29:48.234Z,98667.53
2024-02-14T15:32:34.019Z,98664.38
2024-02-14T15:35:01.209Z,98662.59
2024-02-14T15:37:28.053Z,98667.44
2024-02-14T15:39:55.049Z,98672.50
2024-02-14T15:42:21.974Z,98662.97
2024-02-14T15:44:48.883Z,98668.03
2024-02-14T15:47:15.977Z,98671.50
2024-02-14T15:49:42.921Z,98672.63
2024-02-14T15:52:09.781Z,98678.69
2024-02-14T15:54:38.042Z,98677.47
2024-02-14T15:57:05.122Z,98678.78
2024-02-14T15:59:31.980Z,98683.84
2024-02-14T16:02:00.827Z,98685.94
2024-02-14T16:04:27.691Z,98686.88
2024-02-14T16:06:54.535Z,98682.59
2024-02-14T16:09:22.019Z,98691.09
2024-02-14T16:11:48.977Z,98691.34
2024-02-14T16:14:18.261Z,98689.16
2024-02-14T16:16:45.197Z,98696.78
2024-02-14T16:19:12.832Z,98702.94
2024-02-14T16:21:39.813Z,98705.91
2024-02-14T16:24:07.017Z,98704.03
2024-02-14T16:26:34.023Z,98710.50
2024-02-14T16:29:00.982Z,98722.75
2024-02-14T16:31:27.977Z,98721.37
2024-02-14T16:33:55.036Z,98724.41
2024-02-14T16:36:22.486Z,98721.47
2024-02-14T16:38:49.477Z,98719.78
2024-02-14T16:41:18.004Z,98727.19
2024-02-14T16:43:45.310Z,98723.81
2024-02-14T16:46:12.217Z,98724.28
2024-02-14T16:48:39.489Z,98733.22
2024-02-14T16:51:08.626Z,98724.88
2024-02-14T16:53:35.519Z,98721.19
2024-02-14T16:56:02.360Z,98719.03
2024-02-14T16:58:29.160Z,98728.84
2024-02-14T17:00:56.068Z,98727.28
2024-02-14T17:03:25.548Z,98725.09
2024-02-14T17:05:53.832Z,98723.81
2024-02-14T17:08:20.906Z,98725.47
2024-02-14T17:10:47.784Z,98724.91
2024-02-14T17:13:16.384Z,98728.75
2024-02-14T17:15:43.314Z,98730.16
2024-02-14T17:18:10.748Z,98735.00
2024-02-14T17:20:37.993Z,98732.50
2024-02-14T17:23:05.113Z,98732.47
2024-02-14T17:25:32.005Z,98731.19
2024-02-14T17:27:58.833Z,98741.91
2024-02-14T17:30:25.697Z,98746.53
2024-02-14T17:32:52.688Z,98743.16
2024-02-14T17:35:19.769Z,98742.47
2024-02-14T17:37:46.582Z,98746.19
2024-02-14T17:40:13.432Z,98728.53
2024-02-14T17:42:40.401Z,98736.44
2024-02-14T17:45:08.209Z,98728.97
2024-02-14T17:47:35.836Z,98726.84
2024-02-14T17:50:04.339Z,98735.91
2024-02-14T17:52:31.384Z,98738.88
2024-02-14T17:54:58.793Z,98734.75
2024-02-14T17:57:26.207Z,98737.19
2024-02-14T17:59:53.349Z,98735.75
2024-02-14T18:02:21.384Z,98729.84
2024-02-14T18:04:48.439Z,98733.63
2024-02-14T18:07:15.514Z,98731.09
2024-02-14T18:09:42.428Z,98738.00
2024-02-14T18:12:09.953Z,98733.72
2024-02-14T18:14:36.942Z,98734.34
2024-02-14T18:17:04.055Z,98733.00
2024-02-14T18:19:31.009Z,98739.03
2024-02-14T18:21:57.980Z,98741.22
2024-02-14T18:24:24.916Z,98727.63
2024-02-14T18:26:51.799Z,98729.44
2024-02-14T18:29:18.694Z,98735.16
2024-02-14T18:31:45.553Z,98730.47
2024-02-14T18:34:12.900Z,98725.59
2024-02-14T18:36:40.233Z,98722.00
2024-02-14T18:39:07.426Z,98721.00
2024-02-14T18:41:36.199Z,98720.25
2024-02-14T18:44:06.880Z,98729.72
2024-02-14T18:46:34.029Z,98722.16
2024-02-14T18:49:01.157Z,98726.22
2024-02-14T18:51:28.089Z,98713.09
2024-02-14T18:53:55.072Z,98727.41
2024-02-14T18:56:22.146Z,98718.78
2024-02-14T18:58:50.880Z,98719.41
2024-02-14T19:01:26.738Z,98720.63
2024-02-14T19:03:55.206Z,98724.78
2024-02-14T19:06:23.728Z,98728.50
2024-02-14T19:08:52.584Z,98719.13
2024-02-14T19:11:19.682Z,98724.56
2024-02-14T19:13:46.697Z,98725.66
2024-02-14T19:16:23.957Z,98731.88
2024-02-14T19:18:55.694Z,98730.81
2024-02-14T19:21:22.905Z,98733.56
2024-02-14T19:23:50.066Z,98731.81
2024-02-14T19:26:17.424Z,98722.22
2024-02-14T19:28:44.448Z,98717.81
2024-02-14T19:31:11.293Z,98729.72
2024-02-14T19:33:38.241Z,98718.84
2024-02-14T19:36:05.531Z,98727.00
2024-02-14T19:38:32.391Z,98724.28
2024-02-14T19:40:59.452Z,98726.75
2024-02-14T19:43:32.504Z,98728.19
2024-02-14T19:46:05.802Z,98723.94
2024-02-14T19:48:34.455Z,98719.38
2024-02-14T19:51:03.818Z,98711.72
2024-02-14T19:53:31.121Z,98714.50
2024-02-14T19:56:00.035Z,98717.97
2024-02-14T19:58:27.002Z,98718.50
2024-02-14T20:00:53.968Z,98722.41
2024-02-14T20:03:21.518Z,98712.63
2024-02-14T20:05:49.264Z,98706.84
2024-02-14T20:08:16.351Z,98712.31
2024-02-14T20:10:43.258Z,98713.03
2024-02-14T20:13:10.181Z,98713.94
2024-02-14T20:15:37.059Z,98713.72
2024-02-14T20:18:04.325Z,98714.78
2024-02-14T20:20:31.200Z,98713.41
2024-02-14T20:22:58.018Z,98710.72
2024-02-14T20:25:24.883Z,98713.69
2024-02-14T20:27:51.770Z,98716.91
2024-02-14T20:30:19.772Z,98711.84
2024-02-14T20:32:46.872Z,98713.69
2024-02-14T20:35:14.596Z,98709.66
2024-02-14T20:37:42.899Z,98715.50
2024-02-14T20:40:09.874Z,98716.41
2024-02-14T20:42:36.749Z,98715.88
2024-02-14T20:45:03.982Z,98727.94
2024-02-14T20:47:31.040Z,98709.75
2024-02-14T20:49:59.206Z,98712.09
2024-02-14T20:52:28.067Z,98706.72
2024-02-14T20:54:58.201Z,98709.91
2024-02-14T20:57:25.038Z,98709.06
2024-02-14T20:59:51.987Z,98703.19
2024-02-14T21:02:19.121Z,98705.16
2024-02-14T21:04:46.189Z,98703.97
2024-02-14T21:07:16.035Z,98706.63
2024-02-14T21:09:43.552Z,98694.19
2024-02-14T21:12:11.228Z,98707.78
2024-02-14T21:14:38.613Z,98708.09
2024-02-14T21:17:05.918Z,98705.91
2024-02-14T21:19:32.836Z,98708.69
2024-02-14T21:21:59.731Z,98701.22
2024-02-14T21:24:26.518Z,98701.66
2024-02-14T21:26:54.472Z,98701.66
2024-02-14T21:29:23.793Z,98704.03
2024-02-14T21:31:51.149Z,98700.75
2024-02-14T21:34:20.949Z,98704.87
2024-02-14T21:36:48.068Z,98709.56
2024-02-14T21:39:17.901Z,98702.28
2024-02-14T21:41:47.363Z,98710.00
2024-02-14T21:44:14.462Z,98700.13
2024-02-14T21:46:41.378Z,98700.78
2024-02-14T21:49:08.724Z,98705.87
2024-02-14T21:51:37.883Z,98704.22
2024-02-14T21:54:05.067Z,98707.69
2024-02-14T21:56:32.017Z,98701.94
2024-02-14T21:58:59.707Z,98696.03
2024-02-14T22:01:26.574Z,98691.59
2024-02-14T22:03:53.450Z,98691.38
2024-02-14T22:06:20.138Z,98692.47
2024-02-14T22:08:47.101Z,98692.75
2024-02-14T22:11:14.612Z,98693.94
2024-02-14T22:13:42.140Z,98689.03
2024-02-14T22:16:12.271Z,98694.72
2024-02-14T22:18:39.780Z,98699.84
2024-02-14T22:21:07.135Z,98692.97
2024-02-14T22:23:34.287Z,98705.09
2024-02-14T22:26:02.129Z,98692.75
2024-02-14T22:28:35.749Z,98693.53
2024-02-14T22:31:05.712Z,98685.59
2024-02-14T22:33:33.233Z,98689.00
2024-02-14T22:36:01.152Z,98693.13
2024-02-14T22:38:28.109Z,98689.31
2024-02-14T22:40:55.808Z,98681.44
2024-02-14T22:43:23.006Z,98681.13
2024-02-14T22:45:50.485Z,98684.59
2024-02-14T22:48:17.429Z,98680.53
2024-02-14T22:50:44.415Z,98681.47
2024-02-14T22:53:13.403Z,98681.72
2024-02-14T22:55:40.247Z,98685.78
2024-02-14T22:58:07.213Z,98687.41
2024-02-14T23:00:35.394Z,98679.38
2024-02-14T23:03:07.686Z,98683.13
2024-02-14T23:05:36.124Z,98679.66
2024-02-14T23:08:03.536Z,98683.06
2024-02-14T23:10:31.536Z,98685.16
2024-02-14T23:12:58.723Z,98679.00
2024-02-14T23:15:25.697Z,98678.81
2024-02-14T23:17:52.619Z,98680.16
2024-02-14T23:20:19.745Z,98677.56
2024-02-14T23:22:46.667Z,98679.59
2024-02-14T23:25:13.604Z,98678.28
2024-02-14T23:27:44.013Z,98675.16
2024-02-14T23:30:11.563Z,98672.50
2024-02-14T23:32:40.498Z,98672.72
2024-02-14T23:35:11.246Z,98670.19
2024-02-14T23:37:39.979Z,98670.56
2024-02-14T23:40:13.508Z,98679.12
2024-02-14T23:42:43.959Z,98671.34
2024-02-14T23:45:17.231Z,98668.34
2024-02-14T23:47:44.405Z,98668.38
2024-02-14T23:50:12.093Z,98673.81
2024-02-14T23:52:40.063Z,98682.06
2024-02-14T23:55:07.231Z,98672.59
2024-02-14T23:57:34.842Z,98675.47
